Terminal Aerodrome Forecast
Issued by NWS

Home | Current Version | Previous Version | Graphics & Text | Print | Product List | Glossary On
Versions: 1 2 3 4 5 6 7 8 9 10 11 12 13 14 15 16 17
000
FTUS43 KEAX 271700
TAFSTJ
TAF
KSTJ 271720Z 2718/2818 07008KT P6SM SCT080 BKN150
     FM280200 07008KT P6SM VCTS BKN040CB OVC080
      TEMPO 2805/2809 4SM -TSRA BKN030CB OVC050
     FM281500 19011KT P6SM SCT050 BKN130=

USA.gov is the U.S. government's official web portal to all federal, state and local government web resources and services.